createdAt,value
2022-11-15T00:04:47.054Z,8.53
2022-11-15T00:10:07.749Z,8.47
2022-11-15T00:15:26.950Z,8.37
2022-11-15T00:20:46.529Z,8.31
2022-11-15T00:26:06.549Z,8.30
2022-11-15T00:31:25.935Z,8.07
2022-11-15T00:36:45.545Z,8.21
2022-11-15T00:42:04.857Z,8.06
2022-11-15T00:47:24.298Z,8.19
2022-11-15T00:52:44.180Z,8.26
2022-11-15T00:58:03.659Z,8.19
2022-11-15T01:03:23.066Z,8.19
2022-11-15T01:08:42.770Z,8.20
2022-11-15T01:14:03.040Z,8.13
2022-11-15T01:19:22.338Z,8.18
2022-11-15T01:24:41.880Z,8.17
2022-11-15T01:30:01.259Z,8.27
2022-11-15T01:35:21.732Z,8.27
2022-11-15T01:40:41.441Z,8.36
2022-11-15T01:46:25.386Z,8.42
2022-11-15T01:51:45.378Z,8.40
2022-11-15T01:57:09.811Z,8.38
2022-11-15T02:02:29.671Z,8.48
2022-11-15T02:07:49.810Z,8.37
2022-11-15T02:13:09.694Z,8.42
2022-11-15T02:18:35.190Z,8.53
2022-11-15T02:27:00.751Z,8.49
2022-11-15T02:34:00.191Z,8.57
2022-11-15T02:40:59.323Z,8.58
2022-11-15T02:46:54.828Z,8.56
2022-11-15T02:52:19.865Z,8.46
2022-11-15T02:57:58.396Z,8.57
2022-11-15T03:05:02.980Z,8.55
2022-11-15T03:10:36.461Z,8.61
2022-11-15T03:16:23.126Z,8.71
2022-11-15T03:21:44.619Z,8.70
2022-11-15T03:27:07.426Z,8.70
2022-11-15T03:32:33.327Z,8.78
2022-11-15T03:39:51.195Z,8.93
2022-11-15T03:45:22.052Z,8.92
2022-11-15T03:50:44.122Z,9.03
2022-11-15T03:56:03.547Z,8.98
2022-11-15T04:01:23.310Z,9.09
2022-11-15T04:06:43.106Z,8.97
2022-11-15T04:12:03.178Z,8.96
2022-11-15T04:17:22.557Z,8.86
2022-11-15T04:23:00.853Z,8.76
2022-11-15T04:28:20.354Z,8.79
2022-11-15T04:33:39.793Z,8.67
2022-11-15T04:38:59.256Z,8.68
2022-11-15T04:44:18.855Z,8.63
2022-11-15T04:49:38.430Z,8.58
2022-11-15T04:54:57.930Z,8.60
2022-11-15T05:00:17.722Z,8.64
2022-11-15T05:05:37.309Z,8.60
2022-11-15T05:10:56.967Z,8.56
2022-11-15T05:16:16.384Z,8.52
2022-11-15T05:21:36.602Z,8.58
2022-11-15T05:26:55.903Z,8.57
2022-11-15T05:32:17.035Z,8.65
2022-11-15T05:37:36.594Z,8.58
2022-11-15T05:42:56.888Z,8.67
2022-11-15T05:48:16.623Z,8.74
2022-11-15T05:53:37.432Z,8.68
2022-11-15T05:58:59.994Z,8.66
2022-11-15T06:04:20.081Z,8.74
2022-11-15T06:09:39.602Z,8.74
2022-11-15T06:14:59.249Z,8.68
2022-11-15T06:20:18.582Z,8.75
2022-11-15T06:25:38.124Z,8.60
2022-11-15T06:31:06.301Z,8.63
2022-11-15T06:36:25.852Z,8.65
2022-11-15T06:41:45.506Z,8.62
2022-11-15T06:47:05.100Z,8.57
2022-11-15T06:52:24.621Z,8.47
2022-11-15T06:57:49.026Z,8.51
2022-11-15T07:03:08.685Z,8.45
2022-11-15T07:08:29.510Z,8.47
2022-11-15T07:13:48.788Z,8.51
2022-11-15T07:19:09.556Z,8.60
2022-11-15T07:24:29.711Z,8.53
2022-11-15T07:29:49.511Z,8.56
2022-11-15T07:35:09.031Z,8.58
2022-11-15T07:40:31.978Z,8.48
2022-11-15T07:45:55.978Z,8.48
2022-11-15T07:51:18.957Z,8.59
2022-11-15T07:56:39.348Z,8.51
2022-11-15T08:01:59.188Z,8.63
2022-11-15T08:07:18.823Z,8.71
2022-11-15T08:12:38.464Z,8.77
2022-11-15T08:18:00.050Z,8.84
2022-11-15T08:23:20.655Z,8.88
2022-11-15T08:28:40.457Z,8.83
2022-11-15T08:34:00.980Z,8.84
2022-11-15T08:39:20.359Z,8.91
2022-11-15T08:44:39.854Z,8.91
2022-11-15T08:49:59.367Z,9.08
2022-11-15T08:55:19.063Z,9.06
2022-11-15T09:00:38.650Z,8.93
2022-11-15T09:06:00.809Z,9.09
2022-11-15T09:11:22.116Z,9.11
2022-11-15T09:16:41.808Z,9.14
2022-11-15T09:22:01.603Z,9.19
2022-11-15T09:27:20.801Z,9.38
2022-11-15T09:32:40.366Z,9.42
2022-11-15T09:37:59.822Z,9.48
2022-11-15T09:45:01.930Z,9.57
2022-11-15T09:50:34.967Z,9.75
2022-11-15T09:55:49.650Z,9.64
2022-11-15T10:00:53.194Z,9.42
2022-11-15T10:05:58.305Z,9.48
2022-11-15T10:11:36.120Z,9.32
2022-11-15T10:20:06.361Z,9.28
2022-11-15T10:25:18.988Z,9.31
2022-11-15T10:30:24.004Z,9.53
2022-11-15T10:35:30.853Z,9.44
2022-11-15T10:40:31.603Z,9.49
2022-11-15T10:45:34.564Z,9.59
2022-11-15T10:50:35.506Z,9.65
2022-11-15T10:55:47.757Z,9.91
2022-11-15T11:00:48.712Z,9.67
2022-11-15T11:06:04.507Z,9.62
2022-11-15T11:11:07.320Z,9.92
2022-11-15T11:16:48.421Z,10.10
2022-11-15T11:25:03.925Z,10.25
2022-11-15T11:30:08.822Z,10.29
2022-11-15T11:36:40.103Z,10.26
2022-11-15T11:42:03.312Z,10.09
2022-11-15T11:47:25.336Z,10.08
2022-11-15T11:52:34.913Z,10.10
2022-11-15T12:00:19.009Z,10.24
2022-11-15T12:12:27.577Z,10.20
2022-11-15T12:17:32.211Z,10.08
2022-11-15T12:22:46.008Z,10.03
2022-11-15T12:28:17.122Z,9.99
2022-11-15T12:33:40.520Z,10.05
2022-11-15T12:38:56.054Z,10.15
2022-11-15T12:43:59.322Z,10.18
2022-11-15T12:52:40.195Z,10.32
2022-11-15T12:57:41.923Z,10.39
2022-11-15T13:02:45.527Z,10.27
2022-11-15T13:08:04.149Z,10.32
2022-11-15T13:13:09.550Z,10.25
2022-11-15T13:18:29.601Z,10.36
2022-11-15T13:23:31.263Z,10.19
2022-11-15T13:28:42.509Z,10.29
2022-11-15T13:33:43.524Z,10.40
2022-11-15T13:38:44.284Z,10.47
2022-11-15T13:43:45.045Z,10.42
2022-11-15T13:48:51.823Z,10.48
2022-11-15T13:53:58.421Z,10.53
2022-11-15T13:58:59.277Z,10.51
2022-11-15T14:04:01.592Z,10.38
2022-11-15T14:10:21.835Z,10.47
2022-11-15T14:15:35.626Z,10.40
2022-11-15T14:20:39.461Z,10.54
2022-11-15T14:25:40.301Z,10.15
2022-11-15T14:30:43.046Z,10.05
2022-11-15T14:35:44.147Z,10.02
2022-11-15T14:40:45.241Z,9.84
2022-11-15T14:45:45.989Z,9.80
2022-11-15T14:50:46.760Z,9.82
2022-11-15T14:55:47.839Z,9.76
2022-11-15T15:00:48.707Z,9.59
2022-11-15T15:05:49.602Z,9.60
2022-11-15T15:10:50.537Z,9.60
2022-11-15T15:15:54.649Z,9.48
2022-11-15T15:21:02.659Z,9.59
2022-11-15T15:26:03.737Z,9.48
2022-11-15T15:31:05.327Z,9.50
2022-11-15T15:36:11.458Z,9.49
2022-11-15T15:41:14.406Z,9.40
2022-11-15T15:46:17.789Z,9.37
2022-11-15T15:51:20.745Z,9.46
2022-11-15T15:56:22.130Z,9.40
2022-11-15T16:01:23.096Z,9.40
2022-11-15T16:06:39.736Z,9.43
2022-11-15T16:11:41.763Z,9.38
2022-11-15T16:16:42.581Z,9.43
2022-11-15T16:21:43.487Z,9.35
2022-11-15T16:26:45.684Z,9.37
2022-11-15T16:31:46.448Z,9.38
2022-11-15T16:36:48.024Z,9.38
2022-11-15T16:41:48.842Z,9.40
2022-11-15T16:46:51.160Z,9.41
2022-11-15T16:51:51.899Z,9.37
2022-11-15T16:56:53.144Z,9.44
2022-11-15T17:01:53.909Z,9.38
2022-11-15T17:06:54.882Z,9.37
2022-11-15T17:11:55.907Z,9.38
2022-11-15T17:16:56.739Z,9.45
2022-11-15T17:21:57.612Z,9.47
2022-11-15T17:26:58.546Z,9.48
2022-11-15T17:31:59.371Z,9.45
2022-11-15T17:37:00.279Z,9.48
2022-11-15T17:42:00.997Z,9.43
2022-11-15T17:47:02.103Z,9.38
2022-11-15T17:52:02.873Z,9.36
2022-11-15T17:57:03.960Z,9.30
2022-11-15T18:02:05.459Z,9.37
2022-11-15T18:07:06.296Z,9.49
2022-11-15T18:12:07.102Z,9.48
2022-11-15T18:17:07.858Z,9.49
2022-11-15T18:22:09.454Z,9.43
2022-11-15T18:27:10.638Z,9.41
2022-11-15T18:32:14.292Z,9.39
2022-11-15T18:37:15.070Z,9.36
2022-11-15T18:42:15.883Z,9.43
2022-11-15T18:47:16.663Z,9.44
2022-11-15T18:52:17.394Z,9.46
2022-11-15T18:57:18.482Z,9.45
2022-11-15T19:02:19.480Z,9.35
2022-11-15T19:07:20.588Z,9.38
2022-11-15T19:12:21.611Z,9.38
2022-11-15T19:17:22.349Z,9.45
2022-11-15T19:22:23.137Z,9.31
2022-11-15T19:27:23.983Z,9.19
2022-11-15T19:32:24.700Z,9.38
2022-11-15T19:37:25.482Z,9.38
2022-11-15T19:42:26.214Z,9.25
2022-11-15T19:47:27.743Z,9.29
2022-11-15T19:52:28.482Z,9.23
2022-11-15T19:57:29.613Z,9.18
2022-11-15T20:02:30.324Z,9.17
2022-11-15T20:07:31.369Z,9.17
2022-11-15T20:12:33.447Z,9.15
2022-11-15T20:17:34.668Z,9.16
2022-11-15T20:22:35.479Z,9.16
2022-11-15T20:27:36.356Z,9.12
2022-11-15T20:32:37.093Z,9.12
2022-11-15T20:37:37.910Z,9.03
2022-11-15T20:42:38.864Z,9.09
2022-11-15T20:47:39.627Z,9.02
2022-11-15T20:52:40.396Z,9.00
2022-11-15T20:57:41.235Z,9.01
2022-11-15T21:02:42.032Z,8.97
2022-11-15T21:07:43.591Z,9.04
2022-11-15T21:12:44.553Z,8.97
2022-11-15T21:17:45.338Z,8.88
2022-11-15T21:22:46.246Z,9.02
2022-11-15T21:27:47.107Z,8.90
2022-11-15T21:32:47.859Z,8.95
2022-11-15T21:37:54.958Z,8.90
2022-11-15T21:42:57.454Z,8.83
2022-11-15T21:47:58.171Z,8.76
2022-11-15T21:52:59.157Z,8.80
2022-11-15T21:57:59.969Z,8.79
2022-11-15T22:03:00.836Z,9.00
2022-11-15T22:08:01.608Z,8.96
2022-11-15T22:13:02.439Z,8.94
2022-11-15T22:18:03.771Z,8.97
2022-11-15T22:23:05.100Z,8.97
2022-11-15T22:28:06.997Z,8.95
2022-11-15T22:33:07.836Z,8.98
2022-11-15T22:38:09.342Z,8.99
2022-11-15T22:43:15.651Z,9.00
2022-11-15T22:48:17.168Z,9.04
2022-11-15T22:53:18.694Z,8.95
2022-11-15T22:58:21.279Z,8.96
2022-11-15T23:03:23.397Z,8.95
2022-11-15T23:08:24.311Z,9.02
2022-11-15T23:13:28.221Z,8.94
2022-11-15T23:18:32.151Z,9.09
2022-11-15T23:23:34.458Z,9.07
2022-11-15T23:28:36.069Z,9.07
2022-11-15T23:33:56.672Z,8.95
2022-11-15T23:38:57.883Z,8.91
2022-11-15T23:43:58.871Z,8.85
2022-11-15T23:48:59.734Z,8.83
2022-11-15T23:54:04.310Z,8.85
2022-11-15T23:59:05.495Z,8.88
